sensor_id;sensor_type;location;lat;lon;timestamp;P1;durP1;ratioP1;P2;durP2;ratioP2
29044;SDS011;16133;49.486;12.176;2023-02-28T00:00:33;13.77;;;7.63;;
29044;SDS011;16133;49.486;12.176;2023-02-28T00:02:59;17.08;;;7.13;;
29044;SDS011;16133;49.486;12.176;2023-02-28T00:05:25;15.23;;;7.05;;
29044;SDS011;16133;49.486;12.176;2023-02-28T00:07:52;18.75;;;7.55;;
29044;SDS011;16133;49.486;12.176;2023-02-28T00:10:22;14.98;;;7.38;;
29044;SDS011;16133;49.486;12.176;2023-02-28T00:12:50;14.55;;;7.30;;
29044;SDS011;16133;49.486;12.176;2023-02-28T00:15:16;18.17;;;7.40;;
29044;SDS011;16133;49.486;12.176;2023-02-28T00:17:42;17.27;;;8.20;;
29044;SDS011;16133;49.486;12.176;2023-02-28T00:20:08;18.80;;;8.10;;
29044;SDS011;16133;49.486;12.176;2023-02-28T00:22:35;22.23;;;8.38;;
29044;SDS011;16133;49.486;12.176;2023-02-28T00:25:01;16.40;;;8.48;;
29044;SDS011;16133;49.486;12.176;2023-02-28T00:27:26;21.13;;;8.15;;
29044;SDS011;16133;49.486;12.176;2023-02-28T00:29:52;17.63;;;7.97;;
29044;SDS011;16133;49.486;12.176;2023-02-28T00:32:19;20.42;;;8.55;;
29044;SDS011;16133;49.486;12.176;2023-02-28T00:34:44;18.27;;;8.20;;
29044;SDS011;16133;49.486;12.176;2023-02-28T00:37:09;15.65;;;7.35;;
29044;SDS011;16133;49.486;12.176;2023-02-28T00:39:37;19.67;;;7.78;;
29044;SDS011;16133;49.486;12.176;2023-02-28T00:42:03;20.60;;;8.18;;
29044;SDS011;16133;49.486;12.176;2023-02-28T00:44:29;20.88;;;8.50;;
29044;SDS011;16133;49.486;12.176;2023-02-28T00:46:55;18.00;;;7.68;;
29044;SDS011;16133;49.486;12.176;2023-02-28T00:49:21;18.27;;;8.40;;
29044;SDS011;16133;49.486;12.176;2023-02-28T00:51:47;19.08;;;8.00;;
29044;SDS011;16133;49.486;12.176;2023-02-28T00:54:12;17.67;;;6.95;;
29044;SDS011;16133;49.486;12.176;2023-02-28T00:56:38;14.00;;;6.40;;
29044;SDS011;16133;49.486;12.176;2023-02-28T00:59:03;15.93;;;7.40;;
29044;SDS011;16133;49.486;12.176;2023-02-28T01:01:28;15.05;;;7.07;;
29044;SDS011;16133;49.486;12.176;2023-02-28T01:03:54;16.48;;;7.40;;
29044;SDS011;16133;49.486;12.176;2023-02-28T01:06:19;16.85;;;7.13;;
29044;SDS011;16133;49.486;12.176;2023-02-28T01:08:45;18.63;;;7.57;;
29044;SDS011;16133;49.486;12.176;2023-02-28T01:11:11;14.57;;;6.68;;
29044;SDS011;16133;49.486;12.176;2023-02-28T01:13:37;15.27;;;7.18;;
29044;SDS011;16133;49.486;12.176;2023-02-28T01:16:03;15.10;;;7.13;;
29044;SDS011;16133;49.486;12.176;2023-02-28T01:18:28;13.20;;;6.25;;
29044;SDS011;16133;49.486;12.176;2023-02-28T01:20:54;17.92;;;8.18;;
29044;SDS011;16133;49.486;12.176;2023-02-28T01:23:20;16.95;;;7.70;;
29044;SDS011;16133;49.486;12.176;2023-02-28T01:25:48;24.17;;;9.13;;
29044;SDS011;16133;49.486;12.176;2023-02-28T01:28:13;20.52;;;8.93;;
29044;SDS011;16133;49.486;12.176;2023-02-28T01:30:39;21.05;;;8.65;;
29044;SDS011;16133;49.486;12.176;2023-02-28T01:33:04;18.30;;;8.20;;
29044;SDS011;16133;49.486;12.176;2023-02-28T01:35:32;19.55;;;8.88;;
29044;SDS011;16133;49.486;12.176;2023-02-28T01:37:58;19.30;;;8.68;;
29044;SDS011;16133;49.486;12.176;2023-02-28T01:40:23;17.65;;;8.32;;
29044;SDS011;16133;49.486;12.176;2023-02-28T01:42:49;19.83;;;8.77;;
29044;SDS011;16133;49.486;12.176;2023-02-28T01:47:45;19.65;;;9.25;;
29044;SDS011;16133;49.486;12.176;2023-02-28T01:50:16;27.10;;;9.63;;
29044;SDS011;16133;49.486;12.176;2023-02-28T01:52:45;21.88;;;8.68;;
29044;SDS011;16133;49.486;12.176;2023-02-28T01:55:13;19.95;;;9.02;;
29044;SDS011;16133;49.486;12.176;2023-02-28T01:57:42;23.00;;;10.73;;
29044;SDS011;16133;49.486;12.176;2023-02-28T02:00:14;25.92;;;10.38;;
29044;SDS011;16133;49.486;12.176;2023-02-28T02:02:41;29.55;;;10.38;;
29044;SDS011;16133;49.486;12.176;2023-02-28T02:05:14;21.38;;;8.60;;
29044;SDS011;16133;49.486;12.176;2023-02-28T02:07:43;17.20;;;7.90;;
29044;SDS011;16133;49.486;12.176;2023-02-28T02:10:13;18.38;;;8.15;;
29044;SDS011;16133;49.486;12.176;2023-02-28T02:15:13;16.00;;;8.57;;
29044;SDS011;16133;49.486;12.176;2023-02-28T02:17:43;18.25;;;8.50;;
29044;SDS011;16133;49.486;12.176;2023-02-28T02:20:16;17.73;;;8.02;;
29044;SDS011;16133;49.486;12.176;2023-02-28T02:23:30;20.02;;;8.48;;
29044;SDS011;16133;49.486;12.176;2023-02-28T02:31:28;17.58;;;7.28;;
29044;SDS011;16133;49.486;12.176;2023-02-28T02:34:21;17.67;;;7.93;;
29044;SDS011;16133;49.486;12.176;2023-02-28T02:40:37;17.52;;;7.93;;
29044;SDS011;16133;49.486;12.176;2023-02-28T02:42:48;21.13;;;8.40;;
29044;SDS011;16133;49.486;12.176;2023-02-28T02:47:46;23.77;;;8.45;;
29044;SDS011;16133;49.486;12.176;2023-02-28T02:50:15;22.00;;;9.88;;
29044;SDS011;16133;49.486;12.176;2023-02-28T02:52:51;20.33;;;9.35;;
29044;SDS011;16133;49.486;12.176;2023-02-28T02:55:20;21.83;;;9.10;;
29044;SDS011;16133;49.486;12.176;2023-02-28T02:57:49;25.48;;;11.32;;
29044;SDS011;16133;49.486;12.176;2023-02-28T03:00:20;22.35;;;9.85;;
29044;SDS011;16133;49.486;12.176;2023-02-28T03:02:50;19.30;;;9.48;;
29044;SDS011;16133;49.486;12.176;2023-02-28T03:05:20;20.55;;;9.55;;
29044;SDS011;16133;49.486;12.176;2023-02-28T03:07:50;25.65;;;10.48;;
29044;SDS011;16133;49.486;12.176;2023-02-28T03:10:25;26.25;;;10.43;;
29044;SDS011;16133;49.486;12.176;2023-02-28T03:12:57;22.10;;;10.40;;
29044;SDS011;16133;49.486;12.176;2023-02-28T03:15:48;28.08;;;11.88;;
29044;SDS011;16133;49.486;12.176;2023-02-28T03:23:48;23.50;;;10.25;;
29044;SDS011;16133;49.486;12.176;2023-02-28T03:26:30;20.13;;;9.73;;
29044;SDS011;16133;49.486;12.176;2023-02-28T03:29:07;22.73;;;10.32;;
29044;SDS011;16133;49.486;12.176;2023-02-28T03:31:48;21.73;;;9.70;;
29044;SDS011;16133;49.486;12.176;2023-02-28T03:34:39;25.20;;;10.45;;
29044;SDS011;16133;49.486;12.176;2023-02-28T03:37:14;23.98;;;10.75;;
29044;SDS011;16133;49.486;12.176;2023-02-28T03:39:45;28.17;;;11.60;;
29044;SDS011;16133;49.486;12.176;2023-02-28T03:42:24;30.52;;;12.50;;
29044;SDS011;16133;49.486;12.176;2023-02-28T03:44:57;23.77;;;10.55;;
29044;SDS011;16133;49.486;12.176;2023-02-28T03:47:30;28.23;;;11.15;;
29044;SDS011;16133;49.486;12.176;2023-02-28T03:50:07;31.02;;;13.38;;
29044;SDS011;16133;49.486;12.176;2023-02-28T03:52:35;26.88;;;12.05;;
29044;SDS011;16133;49.486;12.176;2023-02-28T03:55:08;26.92;;;11.73;;
29044;SDS011;16133;49.486;12.176;2023-02-28T03:57:38;26.52;;;11.60;;
29044;SDS011;16133;49.486;12.176;2023-02-28T04:00:13;26.40;;;12.32;;
29044;SDS011;16133;49.486;12.176;2023-02-28T04:02:43;25.77;;;11.10;;
29044;SDS011;16133;49.486;12.176;2023-02-28T04:05:10;33.33;;;13.40;;
29044;SDS011;16133;49.486;12.176;2023-02-28T04:07:35;39.38;;;16.17;;
29044;SDS011;16133;49.486;12.176;2023-02-28T04:10:01;29.33;;;12.85;;
29044;SDS011;16133;49.486;12.176;2023-02-28T04:12:26;28.08;;;11.60;;
29044;SDS011;16133;49.486;12.176;2023-02-28T04:14:51;25.35;;;11.23;;
29044;SDS011;16133;49.486;12.176;2023-02-28T04:17:17;25.70;;;12.63;;
29044;SDS011;16133;49.486;12.176;2023-02-28T04:19:43;27.23;;;12.43;;
29044;SDS011;16133;49.486;12.176;2023-02-28T04:22:09;33.67;;;13.07;;
29044;SDS011;16133;49.486;12.176;2023-02-28T04:24:34;34.50;;;14.77;;
29044;SDS011;16133;49.486;12.176;2023-02-28T04:27:00;33.70;;;13.63;;
29044;SDS011;16133;49.486;12.176;2023-02-28T04:31:52;31.38;;;14.85;;
29044;SDS011;16133;49.486;12.176;2023-02-28T04:34:19;37.55;;;16.05;;
29044;SDS011;16133;49.486;12.176;2023-02-28T04:36:46;34.45;;;14.98;;
29044;SDS011;16133;49.486;12.176;2023-02-28T04:39:13;29.90;;;13.20;;
29044;SDS011;16133;49.486;12.176;2023-02-28T04:41:39;33.50;;;14.25;;
29044;SDS011;16133;49.486;12.176;2023-02-28T04:44:05;37.47;;;16.73;;
29044;SDS011;16133;49.486;12.176;2023-02-28T04:46:30;66.63;;;25.67;;
29044;SDS011;16133;49.486;12.176;2023-02-28T04:48:55;41.55;;;16.33;;
29044;SDS011;16133;49.486;12.176;2023-02-28T04:51:21;36.03;;;15.80;;
29044;SDS011;16133;49.486;12.176;2023-02-28T04:53:46;33.55;;;14.27;;
29044;SDS011;16133;49.486;12.176;2023-02-28T04:56:14;29.42;;;12.80;;
29044;SDS011;16133;49.486;12.176;2023-02-28T04:58:41;28.65;;;12.23;;
29044;SDS011;16133;49.486;12.176;2023-02-28T05:01:14;24.27;;;11.10;;
29044;SDS011;16133;49.486;12.176;2023-02-28T05:03:40;23.77;;;11.75;;
29044;SDS011;16133;49.486;12.176;2023-02-28T05:06:05;31.08;;;12.73;;
29044;SDS011;16133;49.486;12.176;2023-02-28T05:08:32;29.35;;;13.18;;
29044;SDS011;16133;49.486;12.176;2023-02-28T05:10:58;31.00;;;12.27;;
29044;SDS011;16133;49.486;12.176;2023-02-28T05:13:25;34.28;;;12.43;;
29044;SDS011;16133;49.486;12.176;2023-02-28T05:15:50;22.05;;;10.70;;
29044;SDS011;16133;49.486;12.176;2023-02-28T05:18:16;22.45;;;10.05;;
29044;SDS011;16133;49.486;12.176;2023-02-28T05:20:41;26.70;;;11.77;;
29044;SDS011;16133;49.486;12.176;2023-02-28T05:23:08;21.13;;;10.35;;
29044;SDS011;16133;49.486;12.176;2023-02-28T05:25:36;25.08;;;10.68;;
29044;SDS011;16133;49.486;12.176;2023-02-28T05:28:01;25.63;;;11.38;;
29044;SDS011;16133;49.486;12.176;2023-02-28T05:30:26;22.25;;;10.65;;
29044;SDS011;16133;49.486;12.176;2023-02-28T05:32:52;25.05;;;10.68;;
29044;SDS011;16133;49.486;12.176;2023-02-28T05:35:17;22.13;;;10.05;;
29044;SDS011;16133;49.486;12.176;2023-02-28T05:37:43;25.95;;;9.85;;
29044;SDS011;16133;49.486;12.176;2023-02-28T05:40:08;22.20;;;10.68;;
29044;SDS011;16133;49.486;12.176;2023-02-28T05:42:35;22.50;;;10.40;;
29044;SDS011;16133;49.486;12.176;2023-02-28T05:45:01;21.15;;;9.80;;
29044;SDS011;16133;49.486;12.176;2023-02-28T05:47:26;26.20;;;10.55;;
29044;SDS011;16133;49.486;12.176;2023-02-28T05:49:51;25.38;;;10.05;;
29044;SDS011;16133;49.486;12.176;2023-02-28T05:52:17;24.23;;;10.85;;
29044;SDS011;16133;49.486;12.176;2023-02-28T05:54:42;23.58;;;9.40;;
29044;SDS011;16133;49.486;12.176;2023-02-28T05:57:07;21.88;;;9.85;;
29044;SDS011;16133;49.486;12.176;2023-02-28T05:59:33;22.38;;;8.90;;
29044;SDS011;16133;49.486;12.176;2023-02-28T06:01:58;26.48;;;9.77;;
29044;SDS011;16133;49.486;12.176;2023-02-28T06:04:24;20.25;;;9.68;;
29044;SDS011;16133;49.486;12.176;2023-02-28T06:06:49;23.63;;;9.70;;
29044;SDS011;16133;49.486;12.176;2023-02-28T06:09:15;22.92;;;9.48;;
29044;SDS011;16133;49.486;12.176;2023-02-28T06:11:41;21.73;;;10.15;;
29044;SDS011;16133;49.486;12.176;2023-02-28T06:14:06;24.60;;;10.68;;
29044;SDS011;16133;49.486;12.176;2023-02-28T06:16:33;21.27;;;9.70;;
29044;SDS011;16133;49.486;12.176;2023-02-28T06:19:01;23.77;;;10.50;;
29044;SDS011;16133;49.486;12.176;2023-02-28T06:21:28;23.15;;;10.20;;
29044;SDS011;16133;49.486;12.176;2023-02-28T06:23:53;21.50;;;10.68;;
29044;SDS011;16133;49.486;12.176;2023-02-28T06:26:20;25.40;;;11.25;;
29044;SDS011;16133;49.486;12.176;2023-02-28T06:28:45;30.55;;;14.07;;
29044;SDS011;16133;49.486;12.176;2023-02-28T06:31:12;26.63;;;12.10;;
29044;SDS011;16133;49.486;12.176;2023-02-28T06:33:40;28.35;;;12.30;;
29044;SDS011;16133;49.486;12.176;2023-02-28T06:38:35;25.92;;;12.20;;
29044;SDS011;16133;49.486;12.176;2023-02-28T06:41:01;33.30;;;16.98;;
29044;SDS011;16133;49.486;12.176;2023-02-28T06:43:31;24.20;;;11.60;;
29044;SDS011;16133;49.486;12.176;2023-02-28T06:46:01;26.02;;;10.40;;
29044;SDS011;16133;49.486;12.176;2023-02-28T06:48:27;28.65;;;11.15;;
29044;SDS011;16133;49.486;12.176;2023-02-28T06:51:06;37.90;;;13.07;;
29044;SDS011;16133;49.486;12.176;2023-02-28T06:53:35;24.27;;;10.93;;
29044;SDS011;16133;49.486;12.176;2023-02-28T06:56:04;23.17;;;10.30;;
29044;SDS011;16133;49.486;12.176;2023-02-28T06:58:32;24.40;;;9.85;;
29044;SDS011;16133;49.486;12.176;2023-02-28T07:00:57;25.15;;;10.70;;
29044;SDS011;16133;49.486;12.176;2023-02-28T07:03:23;22.55;;;9.52;;
29044;SDS011;16133;49.486;12.176;2023-02-28T07:05:48;17.15;;;8.82;;
29044;SDS011;16133;49.486;12.176;2023-02-28T07:08:14;20.50;;;9.30;;
29044;SDS011;16133;49.486;12.176;2023-02-28T07:10:40;24.90;;;10.98;;
29044;SDS011;16133;49.486;12.176;2023-02-28T07:13:06;20.60;;;9.30;;
29044;SDS011;16133;49.486;12.176;2023-02-28T07:15:33;20.05;;;8.65;;
29044;SDS011;16133;49.486;12.176;2023-02-28T07:17:59;22.20;;;9.23;;
29044;SDS011;16133;49.486;12.176;2023-02-28T07:20:24;21.50;;;9.65;;
29044;SDS011;16133;49.486;12.176;2023-02-28T07:22:50;18.05;;;8.50;;
29044;SDS011;16133;49.486;12.176;2023-02-28T07:25:27;15.00;;;7.90;;
29044;SDS011;16133;49.486;12.176;2023-02-28T07:27:53;21.10;;;9.45;;
29044;SDS011;16133;49.486;12.176;2023-02-28T07:30:20;17.85;;;8.63;;
29044;SDS011;16133;49.486;12.176;2023-02-28T07:32:45;18.27;;;9.05;;
29044;SDS011;16133;49.486;12.176;2023-02-28T07:35:11;18.98;;;8.15;;
29044;SDS011;16133;49.486;12.176;2023-02-28T07:37:37;18.13;;;8.50;;
29044;SDS011;16133;49.486;12.176;2023-02-28T07:40:06;19.88;;;9.02;;
29044;SDS011;16133;49.486;12.176;2023-02-28T07:42:34;18.85;;;8.30;;
29044;SDS011;16133;49.486;12.176;2023-02-28T07:45:00;18.75;;;7.97;;
29044;SDS011;16133;49.486;12.176;2023-02-28T07:47:26;19.33;;;8.98;;
29044;SDS011;16133;49.486;12.176;2023-02-28T07:49:54;19.10;;;8.07;;
29044;SDS011;16133;49.486;12.176;2023-02-28T07:52:20;19.13;;;8.93;;
29044;SDS011;16133;49.486;12.176;2023-02-28T07:54:45;15.48;;;7.57;;
29044;SDS011;16133;49.486;12.176;2023-02-28T07:57:10;17.23;;;7.88;;
29044;SDS011;16133;49.486;12.176;2023-02-28T07:59:36;14.07;;;7.20;;
29044;SDS011;16133;49.486;12.176;2023-02-28T08:02:01;17.02;;;8.60;;
29044;SDS011;16133;49.486;12.176;2023-02-28T08:04:27;19.58;;;7.63;;
29044;SDS011;16133;49.486;12.176;2023-02-28T08:06:53;15.43;;;7.63;;
29044;SDS011;16133;49.486;12.176;2023-02-28T08:09:19;17.33;;;7.78;;
29044;SDS011;16133;49.486;12.176;2023-02-28T08:11:45;15.32;;;7.85;;
29044;SDS011;16133;49.486;12.176;2023-02-28T08:14:10;16.83;;;7.60;;
29044;SDS011;16133;49.486;12.176;2023-02-28T08:16:35;15.90;;;7.35;;
29044;SDS011;16133;49.486;12.176;2023-02-28T08:19:01;12.95;;;7.25;;
29044;SDS011;16133;49.486;12.176;2023-02-28T08:21:27;18.30;;;8.05;;
29044;SDS011;16133;49.486;12.176;2023-02-28T08:23:53;17.67;;;7.55;;
29044;SDS011;16133;49.486;12.176;2023-02-28T08:26:18;17.45;;;8.23;;
29044;SDS011;16133;49.486;12.176;2023-02-28T08:28:44;24.25;;;11.25;;
29044;SDS011;16133;49.486;12.176;2023-02-28T08:31:10;20.77;;;8.60;;
29044;SDS011;16133;49.486;12.176;2023-02-28T08:33:38;20.40;;;8.65;;
29044;SDS011;16133;49.486;12.176;2023-02-28T08:36:04;15.60;;;7.05;;
29044;SDS011;16133;49.486;12.176;2023-02-28T08:38:31;15.55;;;7.38;;
29044;SDS011;16133;49.486;12.176;2023-02-28T08:40:57;13.68;;;7.50;;
29044;SDS011;16133;49.486;12.176;2023-02-28T08:43:24;15.02;;;6.95;;
29044;SDS011;16133;49.486;12.176;2023-02-28T08:45:53;15.32;;;6.35;;
29044;SDS011;16133;49.486;12.176;2023-02-28T08:48:19;14.20;;;6.93;;
29044;SDS011;16133;49.486;12.176;2023-02-28T08:50:53;14.52;;;7.40;;
29044;SDS011;16133;49.486;12.176;2023-02-28T08:53:22;16.85;;;7.25;;
29044;SDS011;16133;49.486;12.176;2023-02-28T08:55:55;18.88;;;8.00;;
29044;SDS011;16133;49.486;12.176;2023-02-28T08:58:24;19.20;;;7.63;;
29044;SDS011;16133;49.486;12.176;2023-02-28T09:00:50;19.45;;;8.57;;
29044;SDS011;16133;49.486;12.176;2023-02-28T09:03:15;16.35;;;7.68;;
29044;SDS011;16133;49.486;12.176;2023-02-28T09:05:42;20.27;;;7.18;;
29044;SDS011;16133;49.486;12.176;2023-02-28T09:08:17;15.98;;;7.40;;
29044;SDS011;16133;49.486;12.176;2023-02-28T09:10:42;16.02;;;6.82;;
29044;SDS011;16133;49.486;12.176;2023-02-28T09:13:07;17.85;;;8.10;;
29044;SDS011;16133;49.486;12.176;2023-02-28T09:15:33;16.30;;;7.82;;
29044;SDS011;16133;49.486;12.176;2023-02-28T09:17:58;15.63;;;6.80;;
29044;SDS011;16133;49.486;12.176;2023-02-28T09:20:23;16.63;;;7.90;;
29044;SDS011;16133;49.486;12.176;2023-02-28T09:22:49;20.42;;;7.65;;
29044;SDS011;16133;49.486;12.176;2023-02-28T09:25:14;19.73;;;7.88;;
29044;SDS011;16133;49.486;12.176;2023-02-28T09:27:39;16.40;;;7.38;;
29044;SDS011;16133;49.486;12.176;2023-02-28T09:30:05;21.35;;;7.65;;
29044;SDS011;16133;49.486;12.176;2023-02-28T09:32:31;15.60;;;7.07;;
29044;SDS011;16133;49.486;12.176;2023-02-28T09:34:56;13.32;;;7.22;;
29044;SDS011;16133;49.486;12.176;2023-02-28T09:37:21;15.88;;;7.18;;
29044;SDS011;16133;49.486;12.176;2023-02-28T09:39:48;19.45;;;7.65;;
29044;SDS011;16133;49.486;12.176;2023-02-28T09:42:18;19.50;;;7.28;;
29044;SDS011;16133;49.486;12.176;2023-02-28T09:44:51;18.40;;;7.93;;
29044;SDS011;16133;49.486;12.176;2023-02-28T09:47:25;17.20;;;9.00;;
29044;SDS011;16133;49.486;12.176;2023-02-28T09:49:55;18.45;;;7.45;;
29044;SDS011;16133;49.486;12.176;2023-02-28T09:52:30;13.68;;;6.75;;
29044;SDS011;16133;49.486;12.176;2023-02-28T09:55:04;14.40;;;7.22;;
29044;SDS011;16133;49.486;12.176;2023-02-28T09:57:41;14.85;;;7.45;;
29044;SDS011;16133;49.486;12.176;2023-02-28T10:02:45;15.95;;;7.32;;
29044;SDS011;16133;49.486;12.176;2023-02-28T10:05:22;16.98;;;8.10;;
29044;SDS011;16133;49.486;12.176;2023-02-28T10:10:44;19.35;;;9.57;;
29044;SDS011;16133;49.486;12.176;2023-02-28T10:13:23;15.20;;;8.23;;
29044;SDS011;16133;49.486;12.176;2023-02-28T10:16:01;16.85;;;8.88;;
29044;SDS011;16133;49.486;12.176;2023-02-28T10:18:41;14.15;;;7.18;;
29044;SDS011;16133;49.486;12.176;2023-02-28T10:21:17;16.50;;;8.15;;
29044;SDS011;16133;49.486;12.176;2023-02-28T10:24:01;20.38;;;8.40;;
29044;SDS011;16133;49.486;12.176;2023-02-28T10:26:38;21.05;;;8.65;;
29044;SDS011;16133;49.486;12.176;2023-02-28T10:29:09;20.38;;;9.63;;
29044;SDS011;16133;49.486;12.176;2023-02-28T10:31:35;16.20;;;7.40;;
29044;SDS011;16133;49.486;12.176;2023-02-28T10:34:00;22.63;;;8.35;;
29044;SDS011;16133;49.486;12.176;2023-02-28T10:36:26;20.27;;;8.15;;
29044;SDS011;16133;49.486;12.176;2023-02-28T10:38:53;20.08;;;9.50;;
29044;SDS011;16133;49.486;12.176;2023-02-28T10:41:30;16.30;;;8.05;;
29044;SDS011;16133;49.486;12.176;2023-02-28T10:44:14;18.90;;;8.23;;
29044;SDS011;16133;49.486;12.176;2023-02-28T10:46:48;21.98;;;8.82;;
29044;SDS011;16133;49.486;12.176;2023-02-28T10:49:24;20.92;;;9.73;;
29044;SDS011;16133;49.486;12.176;2023-02-28T10:51:55;17.67;;;9.10;;
29044;SDS011;16133;49.486;12.176;2023-02-28T10:54:28;21.70;;;9.07;;
29044;SDS011;16133;49.486;12.176;2023-02-28T10:59:44;20.60;;;9.00;;
29044;SDS011;16133;49.486;12.176;2023-02-28T11:02:32;16.58;;;8.18;;
29044;SDS011;16133;49.486;12.176;2023-02-28T11:05:01;19.52;;;8.20;;
29044;SDS011;16133;49.486;12.176;2023-02-28T11:07:26;18.77;;;8.70;;
29044;SDS011;16133;49.486;12.176;2023-02-28T11:09:53;22.23;;;8.90;;
29044;SDS011;16133;49.486;12.176;2023-02-28T11:14:50;17.08;;;8.30;;
29044;SDS011;16133;49.486;12.176;2023-02-28T11:17:25;16.45;;;7.57;;
29044;SDS011;16133;49.486;12.176;2023-02-28T11:19:57;21.67;;;9.07;;
29044;SDS011;16133;49.486;12.176;2023-02-28T11:22:26;14.80;;;8.00;;
29044;SDS011;16133;49.486;12.176;2023-02-28T11:24:59;15.88;;;7.95;;
29044;SDS011;16133;49.486;12.176;2023-02-28T11:29:56;20.02;;;8.77;;
29044;SDS011;16133;49.486;12.176;2023-02-28T11:32:23;19.80;;;7.72;;
29044;SDS011;16133;49.486;12.176;2023-02-28T11:35:04;26.95;;;10.75;;
29044;SDS011;16133;49.486;12.176;2023-02-28T11:37:47;20.17;;;9.02;;
29044;SDS011;16133;49.486;12.176;2023-02-28T11:40:16;17.35;;;7.70;;
29044;SDS011;16133;49.486;12.176;2023-02-28T11:45:45;18.23;;;8.23;;
29044;SDS011;16133;49.486;12.176;2023-02-28T11:51:38;22.08;;;8.65;;
29044;SDS011;16133;49.486;12.176;2023-02-28T11:56:52;17.88;;;8.63;;
29044;SDS011;16133;49.486;12.176;2023-02-28T12:18:47;19.48;;;9.40;;
29044;SDS011;16133;49.486;12.176;2023-02-28T12:28:53;16.60;;;8.13;;
29044;SDS011;16133;49.486;12.176;2023-02-28T12:31:35;17.92;;;9.27;;
29044;SDS011;16133;49.486;12.176;2023-02-28T12:34:04;15.38;;;7.70;;
29044;SDS011;16133;49.486;12.176;2023-02-28T12:36:35;14.17;;;7.80;;
29044;SDS011;16133;49.486;12.176;2023-02-28T12:39:04;25.92;;;9.38;;
29044;SDS011;16133;49.486;12.176;2023-02-28T12:41:39;22.70;;;9.57;;
29044;SDS011;16133;49.486;12.176;2023-02-28T12:44:12;18.80;;;8.75;;
29044;SDS011;16133;49.486;12.176;2023-02-28T12:46:51;21.33;;;9.37;;
29044;SDS011;16133;49.486;12.176;2023-02-28T12:52:09;23.65;;;9.70;;
29044;SDS011;16133;49.486;12.176;2023-02-28T12:55:00;20.38;;;8.82;;
29044;SDS011;16133;49.486;12.176;2023-02-28T13:00:10;13.38;;;6.78;;
29044;SDS011;16133;49.486;12.176;2023-02-28T13:08:20;19.67;;;8.93;;
29044;SDS011;16133;49.486;12.176;2023-02-28T13:10:53;21.83;;;10.23;;
29044;SDS011;16133;49.486;12.176;2023-02-28T13:13:28;22.80;;;9.85;;
29044;SDS011;16133;49.486;12.176;2023-02-28T13:16:03;21.25;;;10.48;;
29044;SDS011;16133;49.486;12.176;2023-02-28T13:18:37;20.08;;;10.05;;
29044;SDS011;16133;49.486;12.176;2023-02-28T13:21:04;21.20;;;10.05;;
29044;SDS011;16133;49.486;12.176;2023-02-28T13:23:40;21.92;;;10.25;;
29044;SDS011;16133;49.486;12.176;2023-02-28T13:32:29;22.15;;;9.25;;
29044;SDS011;16133;49.486;12.176;2023-02-28T13:45:19;23.17;;;10.93;;
29044;SDS011;16133;49.486;12.176;2023-02-28T13:47:40;17.90;;;8.02;;
29044;SDS011;16133;49.486;12.176;2023-02-28T13:50:22;15.82;;;8.77;;
29044;SDS011;16133;49.486;12.176;2023-02-28T14:08:52;16.52;;;8.70;;
29044;SDS011;16133;49.486;12.176;2023-02-28T14:11:26;28.80;;;12.25;;
29044;SDS011;16133;49.486;12.176;2023-02-28T14:14:03;20.35;;;10.07;;
29044;SDS011;16133;49.486;12.176;2023-02-28T14:19:12;17.40;;;8.90;;
29044;SDS011;16133;49.486;12.176;2023-02-28T14:25:18;20.13;;;8.65;;
29044;SDS011;16133;49.486;12.176;2023-02-28T14:30:57;15.23;;;8.13;;
29044;SDS011;16133;49.486;12.176;2023-02-28T14:36:37;18.55;;;9.18;;
29044;SDS011;16133;49.486;12.176;2023-02-28T14:39:14;14.40;;;8.27;;
29044;SDS011;16133;49.486;12.176;2023-02-28T14:41:44;16.35;;;8.23;;
29044;SDS011;16133;49.486;12.176;2023-02-28T14:44:14;20.38;;;8.57;;
29044;SDS011;16133;49.486;12.176;2023-02-28T14:46:50;25.38;;;9.43;;
29044;SDS011;16133;49.486;12.176;2023-02-28T14:49:25;21.70;;;8.70;;
29044;SDS011;16133;49.486;12.176;2023-02-28T14:54:40;22.40;;;9.80;;
29044;SDS011;16133;49.486;12.176;2023-02-28T14:57:06;20.23;;;9.38;;
29044;SDS011;16133;49.486;12.176;2023-02-28T14:59:56;15.25;;;7.13;;
29044;SDS011;16133;49.486;12.176;2023-02-28T15:02:29;17.63;;;8.68;;
29044;SDS011;16133;49.486;12.176;2023-02-28T15:05:19;18.20;;;9.15;;
29044;SDS011;16133;49.486;12.176;2023-02-28T15:07:59;21.02;;;9.38;;
29044;SDS011;16133;49.486;12.176;2023-02-28T15:10:37;21.83;;;10.73;;
29044;SDS011;16133;49.486;12.176;2023-02-28T15:13:06;19.38;;;9.10;;
29044;SDS011;16133;49.486;12.176;2023-02-28T15:21:17;19.05;;;9.15;;
29044;SDS011;16133;49.486;12.176;2023-02-28T15:23:46;21.80;;;9.93;;
29044;SDS011;16133;49.486;12.176;2023-02-28T15:26:19;19.17;;;9.48;;
29044;SDS011;16133;49.486;12.176;2023-02-28T15:28:49;17.95;;;8.80;;
29044;SDS011;16133;49.486;12.176;2023-02-28T15:31:26;19.52;;;9.68;;
29044;SDS011;16133;49.486;12.176;2023-02-28T15:33:58;21.95;;;9.82;;
29044;SDS011;16133;49.486;12.176;2023-02-28T15:36:29;19.77;;;9.80;;
29044;SDS011;16133;49.486;12.176;2023-02-28T15:38:58;20.10;;;10.00;;
29044;SDS011;16133;49.486;12.176;2023-02-28T15:41:35;18.08;;;9.05;;
29044;SDS011;16133;49.486;12.176;2023-02-28T15:47:06;17.77;;;9.07;;
29044;SDS011;16133;49.486;12.176;2023-02-28T15:49:47;20.88;;;9.65;;
29044;SDS011;16133;49.486;12.176;2023-02-28T15:52:18;20.92;;;9.63;;
29044;SDS011;16133;49.486;12.176;2023-02-28T15:54:46;20.63;;;9.88;;
29044;SDS011;16133;49.486;12.176;2023-02-28T15:57:20;20.42;;;9.10;;
29044;SDS011;16133;49.486;12.176;2023-02-28T15:59:50;28.42;;;11.55;;
29044;SDS011;16133;49.486;12.176;2023-02-28T16:02:40;21.90;;;9.80;;
29044;SDS011;16133;49.486;12.176;2023-02-28T16:07:34;23.08;;;10.55;;
29044;SDS011;16133;49.486;12.176;2023-02-28T16:10:07;18.17;;;9.88;;
29044;SDS011;16133;49.486;12.176;2023-02-28T16:12:36;21.33;;;9.70;;
29044;SDS011;16133;49.486;12.176;2023-02-28T16:15:06;24.48;;;10.13;;
29044;SDS011;16133;49.486;12.176;2023-02-28T16:17:35;23.50;;;10.15;;
29044;SDS011;16133;49.486;12.176;2023-02-28T16:20:11;20.05;;;10.68;;
29044;SDS011;16133;49.486;12.176;2023-02-28T16:22:38;30.25;;;11.57;;
29044;SDS011;16133;49.486;12.176;2023-02-28T16:25:04;21.80;;;10.25;;
29044;SDS011;16133;49.486;12.176;2023-02-28T16:27:33;23.92;;;10.95;;
29044;SDS011;16133;49.486;12.176;2023-02-28T16:30:03;24.05;;;10.38;;
29044;SDS011;16133;49.486;12.176;2023-02-28T16:32:30;25.95;;;11.52;;
29044;SDS011;16133;49.486;12.176;2023-02-28T16:34:59;28.23;;;12.02;;
29044;SDS011;16133;49.486;12.176;2023-02-28T16:37:26;23.25;;;11.23;;
29044;SDS011;16133;49.486;12.176;2023-02-28T16:39:52;27.65;;;11.65;;
29044;SDS011;16133;49.486;12.176;2023-02-28T16:42:25;25.40;;;10.85;;
29044;SDS011;16133;49.486;12.176;2023-02-28T16:44:53;25.23;;;10.18;;
29044;SDS011;16133;49.486;12.176;2023-02-28T16:47:20;55.08;;;19.08;;
29044;SDS011;16133;49.486;12.176;2023-02-28T16:49:45;90.18;;;27.15;;
29044;SDS011;16133;49.486;12.176;2023-02-28T16:52:12;36.00;;;15.32;;
29044;SDS011;16133;49.486;12.176;2023-02-28T16:54:38;34.33;;;14.57;;
29044;SDS011;16133;49.486;12.176;2023-02-28T16:57:05;47.13;;;16.85;;